sensor_id;sensor_type;location;lat;lon;timestamp;pressure;altitude;pressure_sealevel;temperature
68952;BMP180;56000;51.146;17.112;2022-12-10T00:02:23;99207.00;;;2.00
68952;BMP180;56000;51.146;17.112;2022-12-10T00:04:56;99205.40;;;2.00
68952;BMP180;56000;51.146;17.112;2022-12-10T00:07:29;99211.60;;;2.02
68952;BMP180;56000;51.146;17.112;2022-12-10T00:10:06;99208.80;;;2.06
68952;BMP180;56000;51.146;17.112;2022-12-10T00:12:41;99200.60;;;2.08
68952;BMP180;56000;51.146;17.112;2022-12-10T00:15:14;99201.80;;;2.08
68952;BMP180;56000;51.146;17.112;2022-12-10T00:17:47;99200.80;;;2.10
68952;BMP180;56000;51.146;17.112;2022-12-10T00:20:20;99201.40;;;2.10
68952;BMP180;56000;51.146;17.112;2022-12-10T00:22:53;99203.60;;;2.10
68952;BMP180;56000;51.146;17.112;2022-12-10T00:25:26;99206.40;;;2.10
68952;BMP180;56000;51.146;17.112;2022-12-10T00:27:59;99198.20;;;2.10
68952;BMP180;56000;51.146;17.112;2022-12-10T00:30:32;99202.00;;;2.10
68952;BMP180;56000;51.146;17.112;2022-12-10T00:33:05;99199.60;;;2.02
68952;BMP180;56000;51.146;17.112;2022-12-10T00:35:39;99198.80;;;2.00
68952;BMP180;56000;51.146;17.112;2022-12-10T00:38:13;99200.00;;;2.00
68952;BMP180;56000;51.146;17.112;2022-12-10T00:40:46;99202.80;;;2.00
68952;BMP180;56000;51.146;17.112;2022-12-10T00:43:19;99200.20;;;2.00
68952;BMP180;56000;51.146;17.112;2022-12-10T00:45:52;99201.60;;;2.00
68952;BMP180;56000;51.146;17.112;2022-12-10T00:48:25;99195.40;;;2.00
68952;BMP180;56000;51.146;17.112;2022-12-10T00:51:05;99198.40;;;2.00
68952;BMP180;56000;51.146;17.112;2022-12-10T00:53:40;99194.00;;;2.00
68952;BMP180;56000;51.146;17.112;2022-12-10T00:56:17;99188.80;;;2.00
68952;BMP180;56000;51.146;17.112;2022-12-10T00:58:51;99186.20;;;2.00
68952;BMP180;56000;51.146;17.112;2022-12-10T01:01:26;99190.80;;;2.00
68952;BMP180;56000;51.146;17.112;2022-12-10T01:04:02;99193.80;;;2.00
68952;BMP180;56000;51.146;17.112;2022-12-10T01:06:40;99195.60;;;2.00
68952;BMP180;56000;51.146;17.112;2022-12-10T01:09:18;99190.60;;;1.96
68952;BMP180;56000;51.146;17.112;2022-12-10T01:11:52;99192.00;;;1.94
68952;BMP180;56000;51.146;17.112;2022-12-10T01:14:29;99192.80;;;1.96
68952;BMP180;56000;51.146;17.112;2022-12-10T01:17:04;99194.20;;;1.92
68952;BMP180;56000;51.146;17.112;2022-12-10T01:19:38;99198.40;;;1.90
68952;BMP180;56000;51.146;17.112;2022-12-10T01:22:11;99194.80;;;1.90
68952;BMP180;56000;51.146;17.112;2022-12-10T01:24:44;99203.20;;;1.98
68952;BMP180;56000;51.146;17.112;2022-12-10T01:27:17;99207.40;;;1.94
68952;BMP180;56000;51.146;17.112;2022-12-10T01:29:50;99201.60;;;1.96
68952;BMP180;56000;51.146;17.112;2022-12-10T01:32:23;99202.80;;;2.00
68952;BMP180;56000;51.146;17.112;2022-12-10T01:34:56;99203.00;;;2.00
68952;BMP180;56000;51.146;17.112;2022-12-10T01:37:29;99216.40;;;2.00
68952;BMP180;56000;51.146;17.112;2022-12-10T01:40:02;99218.00;;;2.00
68952;BMP180;56000;51.146;17.112;2022-12-10T01:42:35;99219.60;;;2.00
68952;BMP180;56000;51.146;17.112;2022-12-10T01:45:13;99207.80;;;2.00
68952;BMP180;56000;51.146;17.112;2022-12-10T01:47:46;99210.80;;;2.00
68952;BMP180;56000;51.146;17.112;2022-12-10T01:50:19;99212.00;;;2.00
68952;BMP180;56000;51.146;17.112;2022-12-10T01:52:51;99217.80;;;2.00
68952;BMP180;56000;51.146;17.112;2022-12-10T01:55:48;99212.00;;;2.00
68952;BMP180;56000;51.146;17.112;2022-12-10T01:58:21;99207.40;;;2.00
68952;BMP180;56000;51.146;17.112;2022-12-10T02:01:06;99210.20;;;2.00
68952;BMP180;56000;51.146;17.112;2022-12-10T02:03:51;99205.20;;;2.00
68952;BMP180;56000;51.146;17.112;2022-12-10T02:06:53;99196.80;;;2.00
68952;BMP180;56000;51.146;17.112;2022-12-10T02:09:32;99200.80;;;2.00
68952;BMP180;56000;51.146;17.112;2022-12-10T02:12:15;99201.00;;;2.00
68952;BMP180;56000;51.146;17.112;2022-12-10T02:14:57;99201.60;;;2.00
68952;BMP180;56000;51.146;17.112;2022-12-10T02:17:36;99204.40;;;2.00
68952;BMP180;56000;51.146;17.112;2022-12-10T02:20:15;99200.00;;;2.00
68952;BMP180;56000;51.146;17.112;2022-12-10T02:22:53;99202.40;;;2.00
68952;BMP180;56000;51.146;17.112;2022-12-10T02:25:34;99199.20;;;2.00
68952;BMP180;56000;51.146;17.112;2022-12-10T02:28:17;99197.00;;;2.00
68952;BMP180;56000;51.146;17.112;2022-12-10T02:30:52;99204.00;;;2.00
68952;BMP180;56000;51.146;17.112;2022-12-10T02:33:29;99209.60;;;2.00
68952;BMP180;56000;51.146;17.112;2022-12-10T02:36:05;99206.20;;;2.00
68952;BMP180;56000;51.146;17.112;2022-12-10T02:38:41;99211.00;;;1.98
68952;BMP180;56000;51.146;17.112;2022-12-10T02:41:18;99210.20;;;1.92
68952;BMP180;56000;51.146;17.112;2022-12-10T02:43:54;99206.20;;;1.98
68952;BMP180;56000;51.146;17.112;2022-12-10T02:46:30;99211.20;;;1.98
68952;BMP180;56000;51.146;17.112;2022-12-10T02:49:07;99213.60;;;2.00
68952;BMP180;56000;51.146;17.112;2022-12-10T02:51:41;99220.20;;;2.00
68952;BMP180;56000;51.146;17.112;2022-12-10T02:54:38;99218.60;;;1.98
68952;BMP180;56000;51.146;17.112;2022-12-10T02:57:36;99224.80;;;2.00
68952;BMP180;56000;51.146;17.112;2022-12-10T03:00:15;99222.80;;;2.00
68952;BMP180;56000;51.146;17.112;2022-12-10T03:03:10;99224.60;;;2.00
68952;BMP180;56000;51.146;17.112;2022-12-10T03:05:50;99221.20;;;1.90
68952;BMP180;56000;51.146;17.112;2022-12-10T03:08:28;99227.20;;;2.00
68952;BMP180;56000;51.146;17.112;2022-12-10T03:11:10;99226.00;;;2.00
68952;BMP180;56000;51.146;17.112;2022-12-10T03:13:51;99225.00;;;1.90
68952;BMP180;56000;51.146;17.112;2022-12-10T03:16:28;99230.40;;;1.90
68952;BMP180;56000;51.146;17.112;2022-12-10T03:19:07;99226.60;;;1.90
68952;BMP180;56000;51.146;17.112;2022-12-10T03:21:43;99229.80;;;1.90
68952;BMP180;56000;51.146;17.112;2022-12-10T03:24:18;99236.60;;;1.90
68952;BMP180;56000;51.146;17.112;2022-12-10T03:26:51;99233.60;;;1.90
68952;BMP180;56000;51.146;17.112;2022-12-10T03:29:34;99236.40;;;1.90
68952;BMP180;56000;51.146;17.112;2022-12-10T03:32:09;99231.20;;;1.90
68952;BMP180;56000;51.146;17.112;2022-12-10T03:34:42;99232.80;;;1.90
68952;BMP180;56000;51.146;17.112;2022-12-10T03:37:16;99234.80;;;1.80
68952;BMP180;56000;51.146;17.112;2022-12-10T03:39:50;99236.40;;;1.84
68952;BMP180;56000;51.146;17.112;2022-12-10T03:42:23;99239.40;;;1.90
68952;BMP180;56000;51.146;17.112;2022-12-10T03:44:56;99239.00;;;1.80
68952;BMP180;56000;51.146;17.112;2022-12-10T03:47:29;99238.20;;;1.82
68952;BMP180;56000;51.146;17.112;2022-12-10T03:50:02;99234.40;;;1.80
68952;BMP180;56000;51.146;17.112;2022-12-10T03:52:35;99232.20;;;1.80
68952;BMP180;56000;51.146;17.112;2022-12-10T03:55:10;99231.60;;;1.80
68952;BMP180;56000;51.146;17.112;2022-12-10T03:57:43;99226.80;;;1.80
68952;BMP180;56000;51.146;17.112;2022-12-10T04:00:18;99232.60;;;1.80
68952;BMP180;56000;51.146;17.112;2022-12-10T04:02:51;99234.60;;;1.82
68952;BMP180;56000;51.146;17.112;2022-12-10T04:05:24;99238.80;;;1.86
68952;BMP180;56000;51.146;17.112;2022-12-10T04:07:57;99238.40;;;1.88
68952;BMP180;56000;51.146;17.112;2022-12-10T04:10:29;99241.60;;;1.90
68952;BMP180;56000;51.146;17.112;2022-12-10T04:13:02;99243.00;;;1.90
68952;BMP180;56000;51.146;17.112;2022-12-10T04:15:53;99248.40;;;1.90
68952;BMP180;56000;51.146;17.112;2022-12-10T04:18:49;99254.80;;;1.90
68952;BMP180;56000;51.146;17.112;2022-12-10T04:21:27;99260.40;;;1.90
68952;BMP180;56000;51.146;17.112;2022-12-10T04:24:20;99257.20;;;1.90
68952;BMP180;56000;51.146;17.112;2022-12-10T04:27:13;99257.20;;;1.86
68952;BMP180;56000;51.146;17.112;2022-12-10T04:29:47;99264.00;;;1.86
68952;BMP180;56000;51.146;17.112;2022-12-10T04:32:22;99262.60;;;1.88
68952;BMP180;56000;51.146;17.112;2022-12-10T04:34:55;99259.80;;;1.84
68952;BMP180;56000;51.146;17.112;2022-12-10T04:37:29;99256.00;;;1.80
68952;BMP180;56000;51.146;17.112;2022-12-10T04:40:02;99269.00;;;1.80
68952;BMP180;56000;51.146;17.112;2022-12-10T04:42:35;99267.20;;;1.80
68952;BMP180;56000;51.146;17.112;2022-12-10T04:45:10;99263.40;;;1.80
68952;BMP180;56000;51.146;17.112;2022-12-10T04:47:42;99256.40;;;1.80
68952;BMP180;56000;51.146;17.112;2022-12-10T04:50:15;99258.40;;;1.80
68952;BMP180;56000;51.146;17.112;2022-12-10T04:52:48;99261.60;;;1.80
68952;BMP180;56000;51.146;17.112;2022-12-10T04:55:21;99267.80;;;1.80
68952;BMP180;56000;51.146;17.112;2022-12-10T04:57:54;99270.80;;;1.80
68952;BMP180;56000;51.146;17.112;2022-12-10T05:00:28;99269.80;;;1.80
68952;BMP180;56000;51.146;17.112;2022-12-10T05:03:01;99276.20;;;1.80
68952;BMP180;56000;51.146;17.112;2022-12-10T05:05:34;99280.40;;;1.80
68952;BMP180;56000;51.146;17.112;2022-12-10T05:08:07;99280.40;;;1.80
68952;BMP180;56000;51.146;17.112;2022-12-10T05:10:40;99274.80;;;1.80
68952;BMP180;56000;51.146;17.112;2022-12-10T05:13:13;99272.80;;;1.82
68952;BMP180;56000;51.146;17.112;2022-12-10T05:15:46;99264.80;;;1.80
68952;BMP180;56000;51.146;17.112;2022-12-10T05:18:19;99262.40;;;1.80
68952;BMP180;56000;51.146;17.112;2022-12-10T05:20:52;99261.00;;;1.80
68952;BMP180;56000;51.146;17.112;2022-12-10T05:23:25;99267.80;;;1.80
68952;BMP180;56000;51.146;17.112;2022-12-10T05:26:07;99266.00;;;1.80
68952;BMP180;56000;51.146;17.112;2022-12-10T05:28:43;99274.40;;;1.80
68952;BMP180;56000;51.146;17.112;2022-12-10T05:31:18;99280.20;;;1.80
68952;BMP180;56000;51.146;17.112;2022-12-10T05:33:52;99289.00;;;1.80
68952;BMP180;56000;51.146;17.112;2022-12-10T05:36:28;99286.00;;;1.80
68952;BMP180;56000;51.146;17.112;2022-12-10T05:39:02;99290.80;;;1.80
68952;BMP180;56000;51.146;17.112;2022-12-10T05:41:38;99288.20;;;1.80
68952;BMP180;56000;51.146;17.112;2022-12-10T05:44:12;99285.20;;;1.80
68952;BMP180;56000;51.146;17.112;2022-12-10T05:46:44;99289.20;;;1.80
68952;BMP180;56000;51.146;17.112;2022-12-10T05:49:17;99295.20;;;1.80
68952;BMP180;56000;51.146;17.112;2022-12-10T05:51:50;99291.80;;;1.80
68952;BMP180;56000;51.146;17.112;2022-12-10T05:54:23;99293.20;;;1.80
68952;BMP180;56000;51.146;17.112;2022-12-10T05:56:56;99288.00;;;1.80
68952;BMP180;56000;51.146;17.112;2022-12-10T05:59:29;99291.40;;;1.80
68952;BMP180;56000;51.146;17.112;2022-12-10T06:02:02;99289.80;;;1.80
68952;BMP180;56000;51.146;17.112;2022-12-10T06:04:35;99290.40;;;1.70
68952;BMP180;56000;51.146;17.112;2022-12-10T06:07:07;99295.20;;;1.70
68952;BMP180;56000;51.146;17.112;2022-12-10T06:09:41;99299.00;;;1.70
68952;BMP180;56000;51.146;17.112;2022-12-10T06:12:14;99297.60;;;1.70
68952;BMP180;56000;51.146;17.112;2022-12-10T06:14:47;99297.20;;;1.70
68952;BMP180;56000;51.146;17.112;2022-12-10T06:17:20;99298.00;;;1.70
68952;BMP180;56000;51.146;17.112;2022-12-10T06:19:53;99297.40;;;1.72
68952;BMP180;56000;51.146;17.112;2022-12-10T06:22:26;99296.60;;;1.70
68952;BMP180;56000;51.146;17.112;2022-12-10T06:24:59;99294.00;;;1.70
68952;BMP180;56000;51.146;17.112;2022-12-10T06:27:33;99294.40;;;1.70
68952;BMP180;56000;51.146;17.112;2022-12-10T06:30:09;99300.00;;;1.70
68952;BMP180;56000;51.146;17.112;2022-12-10T06:32:42;99297.60;;;1.70
68952;BMP180;56000;51.146;17.112;2022-12-10T06:35:15;99297.00;;;1.70
68952;BMP180;56000;51.146;17.112;2022-12-10T06:37:49;99295.00;;;1.70
68952;BMP180;56000;51.146;17.112;2022-12-10T06:40:22;99298.00;;;1.70
68952;BMP180;56000;51.146;17.112;2022-12-10T06:42:55;99298.60;;;1.70
68952;BMP180;56000;51.146;17.112;2022-12-10T06:45:28;99296.20;;;1.66
68952;BMP180;56000;51.146;17.112;2022-12-10T06:48:01;99298.00;;;1.60
68952;BMP180;56000;51.146;17.112;2022-12-10T06:50:34;99290.40;;;1.60
68952;BMP180;56000;51.146;17.112;2022-12-10T06:53:08;99292.20;;;1.54
68952;BMP180;56000;51.146;17.112;2022-12-10T06:55:41;99293.20;;;1.50
68952;BMP180;56000;51.146;17.112;2022-12-10T06:58:13;99293.60;;;1.50
68952;BMP180;56000;51.146;17.112;2022-12-10T07:00:46;99300.40;;;1.50
68952;BMP180;56000;51.146;17.112;2022-12-10T07:03:19;99303.80;;;1.56
68952;BMP180;56000;51.146;17.112;2022-12-10T07:05:52;99308.40;;;1.52
68952;BMP180;56000;51.146;17.112;2022-12-10T07:08:25;99311.60;;;1.50
68952;BMP180;56000;51.146;17.112;2022-12-10T07:10:58;99313.00;;;1.50
68952;BMP180;56000;51.146;17.112;2022-12-10T07:13:31;99312.40;;;1.60
68952;BMP180;56000;51.146;17.112;2022-12-10T07:16:10;99321.80;;;1.60
68952;BMP180;56000;51.146;17.112;2022-12-10T07:18:44;99323.00;;;1.60
68952;BMP180;56000;51.146;17.112;2022-12-10T07:21:24;99327.00;;;1.60
68952;BMP180;56000;51.146;17.112;2022-12-10T07:24:01;99325.40;;;1.60
68952;BMP180;56000;51.146;17.112;2022-12-10T07:26:37;99327.00;;;1.60
68952;BMP180;56000;51.146;17.112;2022-12-10T07:29:14;99327.80;;;1.60
68952;BMP180;56000;51.146;17.112;2022-12-10T07:31:49;99322.40;;;1.60
68952;BMP180;56000;51.146;17.112;2022-12-10T07:34:22;99322.40;;;1.60
68952;BMP180;56000;51.146;17.112;2022-12-10T07:36:55;99328.80;;;1.60
68952;BMP180;56000;51.146;17.112;2022-12-10T07:39:27;99327.60;;;1.60
68952;BMP180;56000;51.146;17.112;2022-12-10T07:42:00;99328.40;;;1.60
68952;BMP180;56000;51.146;17.112;2022-12-10T07:44:33;99325.60;;;1.60
68952;BMP180;56000;51.146;17.112;2022-12-10T07:47:07;99324.00;;;1.54
68952;BMP180;56000;51.146;17.112;2022-12-10T07:49:39;99326.40;;;1.52
68952;BMP180;56000;51.146;17.112;2022-12-10T07:52:13;99324.20;;;1.50
68952;BMP180;56000;51.146;17.112;2022-12-10T07:54:46;99324.60;;;1.50
68952;BMP180;56000;51.146;17.112;2022-12-10T07:57:19;99330.20;;;1.58
68952;BMP180;56000;51.146;17.112;2022-12-10T07:59:52;99335.00;;;1.60
68952;BMP180;56000;51.146;17.112;2022-12-10T08:02:25;99337.20;;;1.58
68952;BMP180;56000;51.146;17.112;2022-12-10T08:04:58;99342.60;;;1.60
68952;BMP180;56000;51.146;17.112;2022-12-10T08:07:31;99340.80;;;1.60
68952;BMP180;56000;51.146;17.112;2022-12-10T08:10:06;99351.00;;;1.60
68952;BMP180;56000;51.146;17.112;2022-12-10T08:12:39;99358.60;;;1.60
68952;BMP180;56000;51.146;17.112;2022-12-10T08:15:13;99359.00;;;1.60
68952;BMP180;56000;51.146;17.112;2022-12-10T08:17:45;99359.40;;;1.70
68952;BMP180;56000;51.146;17.112;2022-12-10T08:20:19;99360.20;;;1.70
68952;BMP180;56000;51.146;17.112;2022-12-10T08:22:52;99354.20;;;1.70
68952;BMP180;56000;51.146;17.112;2022-12-10T08:25:25;99356.60;;;1.78
68952;BMP180;56000;51.146;17.112;2022-12-10T08:27:58;99353.40;;;1.80
68952;BMP180;56000;51.146;17.112;2022-12-10T08:30:34;99355.20;;;1.80
68952;BMP180;56000;51.146;17.112;2022-12-10T08:33:07;99362.20;;;1.80
68952;BMP180;56000;51.146;17.112;2022-12-10T08:35:40;99357.20;;;1.80
68952;BMP180;56000;51.146;17.112;2022-12-10T08:38:13;99359.20;;;1.80
68952;BMP180;56000;51.146;17.112;2022-12-10T08:40:46;99359.40;;;1.80
68952;BMP180;56000;51.146;17.112;2022-12-10T08:43:19;99357.60;;;1.80
68952;BMP180;56000;51.146;17.112;2022-12-10T08:45:52;99361.00;;;1.80
68952;BMP180;56000;51.146;17.112;2022-12-10T08:48:25;99361.00;;;1.80
68952;BMP180;56000;51.146;17.112;2022-12-10T08:50:59;99370.00;;;1.80
68952;BMP180;56000;51.146;17.112;2022-12-10T08:53:32;99364.80;;;1.82
68952;BMP180;56000;51.146;17.112;2022-12-10T08:56:05;99368.40;;;1.88
68952;BMP180;56000;51.146;17.112;2022-12-10T08:58:40;99363.60;;;1.90
68952;BMP180;56000;51.146;17.112;2022-12-10T09:01:16;99363.20;;;1.92
68952;BMP180;56000;51.146;17.112;2022-12-10T09:03:50;99362.80;;;1.92
68952;BMP180;56000;51.146;17.112;2022-12-10T09:06:24;99365.00;;;1.90
68952;BMP180;56000;51.146;17.112;2022-12-10T09:08:57;99365.00;;;1.90
68952;BMP180;56000;51.146;17.112;2022-12-10T09:11:33;99366.40;;;1.90
68952;BMP180;56000;51.146;17.112;2022-12-10T09:14:06;99365.40;;;1.90
68952;BMP180;56000;51.146;17.112;2022-12-10T09:16:39;99357.00;;;1.98
68952;BMP180;56000;51.146;17.112;2022-12-10T09:19:13;99356.60;;;2.00
68952;BMP180;56000;51.146;17.112;2022-12-10T09:21:50;99361.60;;;2.00
68952;BMP180;56000;51.146;17.112;2022-12-10T09:24:23;99357.20;;;1.90
68952;BMP180;56000;51.146;17.112;2022-12-10T09:26:56;99357.40;;;1.94
68952;BMP180;56000;51.146;17.112;2022-12-10T09:29:29;99355.40;;;2.00
68952;BMP180;56000;51.146;17.112;2022-12-10T09:32:02;99351.00;;;2.10
68952;BMP180;56000;51.146;17.112;2022-12-10T09:34:35;99352.60;;;2.10
68952;BMP180;56000;51.146;17.112;2022-12-10T09:37:08;99351.60;;;2.10
68952;BMP180;56000;51.146;17.112;2022-12-10T09:39:41;99352.40;;;2.10
68952;BMP180;56000;51.146;17.112;2022-12-10T09:42:28;99352.40;;;2.20
68952;BMP180;56000;51.146;17.112;2022-12-10T09:45:11;99353.20;;;2.30
68952;BMP180;56000;51.146;17.112;2022-12-10T09:47:54;99348.40;;;2.30
68952;BMP180;56000;51.146;17.112;2022-12-10T09:50:35;99355.80;;;2.30
68952;BMP180;56000;51.146;17.112;2022-12-10T09:53:14;99353.20;;;2.30
68952;BMP180;56000;51.146;17.112;2022-12-10T09:55:49;99351.60;;;2.30
68952;BMP180;56000;51.146;17.112;2022-12-10T09:58:26;99345.20;;;2.30
68952;BMP180;56000;51.146;17.112;2022-12-10T10:01:04;99344.40;;;2.30
68952;BMP180;56000;51.146;17.112;2022-12-10T10:03:39;99342.20;;;2.30
68952;BMP180;56000;51.146;17.112;2022-12-10T10:06:14;99340.20;;;2.30
68952;BMP180;56000;51.146;17.112;2022-12-10T10:08:50;99333.00;;;2.32
68952;BMP180;56000;51.146;17.112;2022-12-10T10:11:27;99329.60;;;2.40
68952;BMP180;56000;51.146;17.112;2022-12-10T10:14:05;99326.00;;;2.40
68952;BMP180;56000;51.146;17.112;2022-12-10T10:16:45;99321.40;;;2.40
68952;BMP180;56000;51.146;17.112;2022-12-10T10:19:24;99316.60;;;2.40
68952;BMP180;56000;51.146;17.112;2022-12-10T10:21:59;99319.20;;;2.40
68952;BMP180;56000;51.146;17.112;2022-12-10T10:24:37;99317.60;;;2.40
68952;BMP180;56000;51.146;17.112;2022-12-10T10:27:20;99318.60;;;2.42
68952;BMP180;56000;51.146;17.112;2022-12-10T10:29:56;99309.40;;;2.50
68952;BMP180;56000;51.146;17.112;2022-12-10T10:32:49;99312.20;;;2.44
68952;BMP180;56000;51.146;17.112;2022-12-10T10:35:30;99312.00;;;2.40
68952;BMP180;56000;51.146;17.112;2022-12-10T10:38:07;99311.20;;;2.40
68952;BMP180;56000;51.146;17.112;2022-12-10T10:40:48;99309.40;;;2.40
68952;BMP180;56000;51.146;17.112;2022-12-10T10:43:25;99311.20;;;2.30
68952;BMP180;56000;51.146;17.112;2022-12-10T10:46:02;99314.00;;;2.30
68952;BMP180;56000;51.146;17.112;2022-12-10T10:48:36;99310.00;;;2.30
68952;BMP180;56000;51.146;17.112;2022-12-10T10:51:17;99312.40;;;2.30
68952;BMP180;56000;51.146;17.112;2022-12-10T10:53:52;99312.60;;;2.30
68952;BMP180;56000;51.146;17.112;2022-12-10T10:56:28;99299.80;;;2.30
68952;BMP180;56000;51.146;17.112;2022-12-10T10:59:05;99306.00;;;2.30
68952;BMP180;56000;51.146;17.112;2022-12-10T11:01:50;99296.80;;;2.30
68952;BMP180;56000;51.146;17.112;2022-12-10T11:04:30;99290.40;;;2.30
68952;BMP180;56000;51.146;17.112;2022-12-10T11:07:05;99291.20;;;2.30
68952;BMP180;56000;51.146;17.112;2022-12-10T11:09:45;99297.60;;;2.30
68952;BMP180;56000;51.146;17.112;2022-12-10T11:12:35;99296.80;;;2.30
68952;BMP180;56000;51.146;17.112;2022-12-10T11:15:34;99310.80;;;2.30
68952;BMP180;56000;51.146;17.112;2022-12-10T11:18:30;99318.20;;;2.30
68952;BMP180;56000;51.146;17.112;2022-12-10T11:21:08;99317.60;;;2.30
68952;BMP180;56000;51.146;17.112;2022-12-10T11:23:51;99320.40;;;2.30
68952;BMP180;56000;51.146;17.112;2022-12-10T11:26:37;99322.80;;;2.26
68952;BMP180;56000;51.146;17.112;2022-12-10T11:29:29;99322.20;;;2.24
68952;BMP180;56000;51.146;17.112;2022-12-10T11:32:30;99326.80;;;2.24
68952;BMP180;56000;51.146;17.112;2022-12-10T11:35:13;99329.60;;;2.28
68952;BMP180;56000;51.146;17.112;2022-12-10T11:37:56;99332.60;;;2.30
68952;BMP180;56000;51.146;17.112;2022-12-10T11:40:40;99333.40;;;2.30
68952;BMP180;56000;51.146;17.112;2022-12-10T11:46:36;99329.60;;;2.30
68952;BMP180;56000;51.146;17.112;2022-12-10T11:49:23;99332.00;;;2.28
68952;BMP180;56000;51.146;17.112;2022-12-10T11:52:08;99336.20;;;2.30
68952;BMP180;56000;51.146;17.112;2022-12-10T11:55:05;99346.00;;;2.30
68952;BMP180;56000;51.146;17.112;2022-12-10T11:57:51;99335.40;;;2.26
68952;BMP180;56000;51.146;17.112;2022-12-10T12:00:35;99334.20;;;2.20
68952;BMP180;56000;51.146;17.112;2022-12-10T12:03:30;99331.60;;;2.20
68952;BMP180;56000;51.146;17.112;2022-12-10T12:06:23;99324.80;;;2.20
68952;BMP180;56000;51.146;17.112;2022-12-10T12:09:04;99339.60;;;2.20
68952;BMP180;56000;51.146;17.112;2022-12-10T12:12:05;99336.80;;;2.20
68952;BMP180;56000;51.146;17.112;2022-12-10T12:14:46;99333.80;;;2.20
68952;BMP180;56000;51.146;17.112;2022-12-10T12:17:25;99334.20;;;2.20
68952;BMP180;56000;51.146;17.112;2022-12-10T12:20:03;99326.40;;;2.20
68952;BMP180;56000;51.146;17.112;2022-12-10T12:22:42;99322.00;;;2.20
68952;BMP180;56000;51.146;17.112;2022-12-10T12:25:24;99324.40;;;2.20
68952;BMP180;56000;51.146;17.112;2022-12-10T12:28:04;99331.80;;;2.20
68952;BMP180;56000;51.146;17.112;2022-12-10T12:30:43;99328.80;;;2.20
68952;BMP180;56000;51.146;17.112;2022-12-10T12:33:25;99331.40;;;2.12
68952;BMP180;56000;51.146;17.112;2022-12-10T12:36:02;99324.00;;;2.20
68952;BMP180;56000;51.146;17.112;2022-12-10T12:38:45;99323.80;;;2.12
68952;BMP180;56000;51.146;17.112;2022-12-10T12:41:34;99316.40;;;2.10
68952;BMP180;56000;51.146;17.112;2022-12-10T12:44:14;99317.80;;;2.10
68952;BMP180;56000;51.146;17.112;2022-12-10T12:46:50;99317.20;;;2.10
68952;BMP180;56000;51.146;17.112;2022-12-10T12:49:28;99315.40;;;2.10
68952;BMP180;56000;51.146;17.112;2022-12-10T12:52:14;99317.80;;;2.10
68952;BMP180;56000;51.146;17.112;2022-12-10T12:54:53;99313.80;;;2.10
68952;BMP180;56000;51.146;17.112;2022-12-10T12:57:33;99318.60;;;2.20
68952;BMP180;56000;51.146;17.112;2022-12-10T13:00:15;99327.00;;;2.20
68952;BMP180;56000;51.146;17.112;2022-12-10T13:03:02;99326.20;;;2.20
68952;BMP180;56000;51.146;17.112;2022-12-10T13:05:41;99325.00;;;2.20
68952;BMP180;56000;51.146;17.112;2022-12-10T13:08:41;99308.60;;;2.20
68952;BMP180;56000;51.146;17.112;2022-12-10T13:11:32;99310.00;;;2.20
68952;BMP180;56000;51.146;17.112;2022-12-10T13:14:30;99310.80;;;2.20
68952;BMP180;56000;51.146;17.112;2022-12-10T13:17:31;99308.20;;;2.20
68952;BMP180;56000;51.146;17.112;2022-12-10T13:20:41;99303.60;;;2.20
68952;BMP180;56000;51.146;17.112;2022-12-10T13:23:34;99308.80;;;2.10
68952;BMP180;56000;51.146;17.112;2022-12-10T13:26:29;99319.20;;;2.10
68952;BMP180;56000;51.146;17.112;2022-12-10T13:29:26;99330.40;;;2.10
68952;BMP180;56000;51.146;17.112;2022-12-10T13:32:04;99328.20;;;2.10
68952;BMP180;56000;51.146;17.112;2022-12-10T13:34:45;99326.00;;;2.10
68952;BMP180;56000;51.146;17.112;2022-12-10T13:37:29;99337.40;;;2.10
68952;BMP180;56000;51.146;17.112;2022-12-10T13:40:24;99337.20;;;2.10
68952;BMP180;56000;51.146;17.112;2022-12-10T13:43:25;99339.20;;;2.10
68952;BMP180;56000;51.146;17.112;2022-12-10T13:46:30;99342.20;;;2.06
68952;BMP180;56000;51.146;17.112;2022-12-10T13:49:05;99336.60;;;2.00
68952;BMP180;56000;51.146;17.112;2022-12-10T13:51:55;99338.80;;;2.00
68952;BMP180;56000;51.146;17.112;2022-12-10T13:55:09;99331.80;;;2.00
68952;BMP180;56000;51.146;17.112;2022-12-10T13:58:30;99344.00;;;2.00
68952;BMP180;56000;51.146;17.112;2022-12-10T14:01:15;99339.60;;;2.00
68952;BMP180;56000;51.146;17.112;2022-12-10T14:04:04;99332.00;;;2.00
68952;BMP180;56000;51.146;17.112;2022-12-10T14:06:40;99340.40;;;2.04
68952;BMP180;56000;51.146;17.112;2022-12-10T14:09:20;99340.80;;;2.04
68952;BMP180;56000;51.146;17.112;2022-12-10T14:11:57;99336.20;;;2.10
68952;BMP180;56000;51.146;17.112;2022-12-10T14:14:35;99336.40;;;2.10
68952;BMP180;56000;51.146;17.112;2022-12-10T14:17:14;99338.40;;;2.04
68952;BMP180;56000;51.146;17.112;2022-12-10T14:19:52;99342.60;;;2.00
68952;BMP180;56000;51.146;17.112;2022-12-10T14:22:31;99344.60;;;2.00
68952;BMP180;56000;51.146;17.112;2022-12-10T14:25:15;99347.40;;;2.00
68952;BMP180;56000;51.146;17.112;2022-12-10T14:27:52;99352.20;;;2.00
68952;BMP180;56000;51.146;17.112;2022-12-10T14:30:27;99357.20;;;2.00
68952;BMP180;56000;51.146;17.112;2022-12-10T14:33:01;99360.60;;;2.00
68952;BMP180;56000;51.146;17.112;2022-12-10T14:35:34;99359.00;;;2.00
68952;BMP180;56000;51.146;17.112;2022-12-10T14:38:12;99364.20;;;2.00
68952;BMP180;56000;51.146;17.112;2022-12-10T14:40:49;99365.20;;;2.00
68952;BMP180;56000;51.146;17.112;2022-12-10T14:43:26;99368.60;;;2.00
68952;BMP180;56000;51.146;17.112;2022-12-10T14:46:05;99369.80;;;2.00
68952;BMP180;56000;51.146;17.112;2022-12-10T14:48:43;99366.60;;;2.00
68952;BMP180;56000;51.146;17.112;2022-12-10T14:51:20;99367.60;;;1.90
68952;BMP180;56000;51.146;17.112;2022-12-10T14:53:55;99375.60;;;1.90
68952;BMP180;56000;51.146;17.112;2022-12-10T14:56:31;99380.60;;;1.90
68952;BMP180;56000;51.146;17.112;2022-12-10T14:59:12;99383.00;;;1.86
68952;BMP180;56000;51.146;17.112;2022-12-10T15:01:49;99383.20;;;1.80
68952;BMP180;56000;51.146;17.112;2022-12-10T15:04:24;99383.40;;;1.80
68952;BMP180;56000;51.146;17.112;2022-12-10T15:07:02;99386.40;;;1.80
68952;BMP180;56000;51.146;17.112;2022-12-10T15:09:35;99386.00;;;1.80
68952;BMP180;56000;51.146;17.112;2022-12-10T15:12:22;99387.60;;;1.80
68952;BMP180;56000;51.146;17.112;2022-12-10T15:14:59;99391.20;;;1.90